MiSS Peggy — WCH4613 — position and weather

sailwx.info

Track history (hours):
 
Tides and Currents Weather Stations Pressure Air Temp Water Temp Dewpoint Dewpoint Depression Visibility Wind Speed Wind Dir Waves Ship Positions

MiSS Peggy

Owner: The Tug Miss Peggy, L.L.C., SUGAR LAND, TX. More information available from US FCC via Universal Licensing System and Coast Guard Vessel Documentation Center.

Last reported at 2018-Jun-14 02:53 UTC. Time now 2018-Jun-18 23:18 UTC.
Position N 29°47' W 095°04'.

Length 16 m.

Type: Tug. MMSI: 366935050.

Date/timePositionNaut miles runAvg speedWind from/ knotsBaromVisibWave heightAir tempDewpointWater temp
2018-Jun-14 02:53N 29°47' W 095°04'2 0.1
2018-Jun-12 13:59N 29°45' W 095°06'0 0.0
2018-Jun-11 06:40N 29°45' W 095°06'2 5.8
2018-Jun-11 06:24N 29°47' W 095°05'1 0.2
2018-Jun-11 01:37N 29°47' W 095°04'3 0.1
2018-Jun-09 06:15N 29°45' W 095°06'1 5.5
2018-Jun-09 05:59N 29°46' W 095°05'0 0.2
2018-Jun-09 04:03N 29°46' W 095°05'1 2.0
2018-Jun-09 03:22N 29°45' W 095°06'2 4.7
2018-Jun-09 03:00N 29°46' W 095°05'1 1.5
2018-Jun-09 02:14N 29°47' W 095°04'2 5.7
2018-Jun-09 01:55N 29°46' W 095°05'3 7.2
2018-Jun-09 01:28N 29°44' W 095°09'5 0.3
2018-Jun-08 09:30N 29°47' W 095°04'0 0.2
2018-Jun-08 08:57N 29°47' W 095°04'0 0.2
2018-Jun-08 08:28N 29°47' W 095°04'3 1.4
2018-Jun-08 06:39N 29°45' W 095°06'1 3.7
2018-Jun-08 06:26N 29°46' W 095°05'2 2.0
2018-Jun-08 05:40N 29°47' W 095°04'0 0.2
2018-Jun-08 05:08N 29°47' W 095°04'3 1.4
2018-Jun-08 03:19N 29°45' W 095°06'2 6.2
2018-Jun-08 03:00N 29°47' W 095°05'1 0.0
2018-Jun-07 08:53N 29°47' W 095°04'0 0.2
2018-Jun-07 08:29N 29°47' W 095°04'0 0.0
2018-Jun-07 08:00N 29°47' W 095°04'0 0.0
2018-Jun-07 07:28N 29°47' W 095°04'0 0.0
2018-Jun-07 06:01N 29°47' W 095°04'0 0.1
2018-Jun-07 05:51N 29°47' W 095°04'0 0.0
2018-Jun-07 05:30N 29°47' W 095°04'0 0.0
2018-Jun-07 04:39N 29°47' W 095°04'0 0.0
2018-Jun-07 04:09N 29°47' W 095°04'0 0.0
2018-Jun-06 12:53N 29°47' W 095°04'0 0.0
2018-Jun-06 10:36N 29°47' W 095°04'0 0.0
2018-Jun-06 10:06N 29°47' W 095°04'0 0.0
2018-Jun-06 07:45N 29°47' W 095°04'0 0.0
2018-Jun-06 07:29N 29°47' W 095°04'0 0.0
2018-Jun-06 06:58N 29°47' W 095°04'0 0.0
2018-Jun-06 06:28N 29°47' W 095°04'0 0.0
2018-Jun-06 05:53N 29°47' W 095°04'0 0.0
2018-Jun-06 05:29N 29°47' W 095°04'0 0.0
2018-Jun-06 04:52N 29°47' W 095°04'1 0.1
2018-Jun-05 13:30N 29°47' W 095°05'1 0.2
2018-Jun-05 08:00N 29°47' W 095°04'1 0.6
2018-Jun-05 05:53N 29°46' W 095°05'1 1.1
2018-Jun-05 05:21N 29°47' W 095°04'1 1.6
2018-Jun-05 04:52N 29°47' W 095°04'0 0.2
2018-Jun-05 03:58N 29°48' W 095°04'0 0.3
2018-Jun-05 03:30N 29°47' W 095°04'0 0.0
2018-Jun-05 02:49N 29°47' W 095°04'0 0.0
2018-Jun-05 02:30N 29°47' W 095°04'0 0.0
2018-Jun-05 01:59N 29°47' W 095°04'6 0.8
2018-Jun-04 18:32N 29°42' W 095°01'0 7.2
2018-Jun-04 18:30N 29°42' W 095°01'4 6.1
2018-Jun-04 17:55N 29°41' W 094°57'2 2.4
2018-Jun-04 17:14N 29°41' W 094°55'2 1.9
2018-Jun-04 16:04N 29°43' W 094°57'0 0.6
2018-Jun-04 15:38N 29°43' W 094°57'2 3.7
2018-Jun-04 15:07N 29°42' W 094°55'2 5.5
2018-Jun-04 14:47N 29°40' W 094°56'2 5.6
2018-Jun-04 14:28N 29°41' W 094°58'3 5.4
2018-Jun-04 13:58N 29°42' W 095°01'3 6.2
2018-Jun-04 13:29N 29°44' W 095°03'3 6.2
2018-Jun-04 13:00N 29°47' W 095°04'1 1.4
2018-Jun-04 12:29N 29°47' W 095°04'0 0.0
2018-Jun-04 12:00N 29°47' W 095°04'0 0.5
2018-Jun-04 11:30N 29°47' W 095°04'0 0.0
2018-Jun-04 10:07N 29°47' W 095°04'1 0.2
2018-Jun-04 03:36N 29°46' W 095°05'  
Track history (hours):
 
Tides and Currents Weather Stations Pressure Air Temp Water Temp Dewpoint Dewpoint Depression Visibility Wind Speed Wind Dir Waves Ship Positions

MiSS Peggy

Owner: The Tug Miss Peggy, L.L.C., SUGAR LAND, TX. More information available from US FCC via Universal Licensing System and Coast Guard Vessel Documentation Center.

Last reported at 2018-Jun-14 02:53 UTC. Time now 2018-Jun-18 23:18 UTC.
Position N 29°47' W 095°04'.

Length 16 m.

Type: Tug. MMSI: 366935050.

Date/timePositionNaut miles runAvg speedWind from/ knotsBaromVisibWave heightAir tempDewpointWater temp
2018-Jun-14 02:53N 29°47' W 095°04'2 0.1
2018-Jun-12 13:59N 29°45' W 095°06'0 0.0
2018-Jun-11 06:40N 29°45' W 095°06'2 5.8
2018-Jun-11 06:24N 29°47' W 095°05'1 0.2
2018-Jun-11 01:37N 29°47' W 095°04'3 0.1
2018-Jun-09 06:15N 29°45' W 095°06'1 5.5
2018-Jun-09 05:59N 29°46' W 095°05'0 0.2
2018-Jun-09 04:03N 29°46' W 095°05'1 2.0
2018-Jun-09 03:22N 29°45' W 095°06'2 4.7
2018-Jun-09 03:00N 29°46' W 095°05'1 1.5
2018-Jun-09 02:14N 29°47' W 095°04'2 5.7
2018-Jun-09 01:55N 29°46' W 095°05'3 7.2
2018-Jun-09 01:28N 29°44' W 095°09'5 0.3
2018-Jun-08 09:30N 29°47' W 095°04'0 0.2
2018-Jun-08 08:57N 29°47' W 095°04'0 0.2
2018-Jun-08 08:28N 29°47' W 095°04'3 1.4
2018-Jun-08 06:39N 29°45' W 095°06'1 3.7
2018-Jun-08 06:26N 29°46' W 095°05'2 2.0
2018-Jun-08 05:40N 29°47' W 095°04'0 0.2
2018-Jun-08 05:08N 29°47' W 095°04'3 1.4
2018-Jun-08 03:19N 29°45' W 095°06'2 6.2
2018-Jun-08 03:00N 29°47' W 095°05'1 0.0
2018-Jun-07 08:53N 29°47' W 095°04'0 0.2
2018-Jun-07 08:29N 29°47' W 095°04'0 0.0
2018-Jun-07 08:00N 29°47' W 095°04'0 0.0
2018-Jun-07 07:28N 29°47' W 095°04'0 0.0
2018-Jun-07 06:01N 29°47' W 095°04'0 0.1
2018-Jun-07 05:51N 29°47' W 095°04'0 0.0
2018-Jun-07 05:30N 29°47' W 095°04'0 0.0
2018-Jun-07 04:39N 29°47' W 095°04'0 0.0
2018-Jun-07 04:09N 29°47' W 095°04'0 0.0
2018-Jun-06 12:53N 29°47' W 095°04'0 0.0
2018-Jun-06 10:36N 29°47' W 095°04'0 0.0
2018-Jun-06 10:06N 29°47' W 095°04'0 0.0
2018-Jun-06 07:45N 29°47' W 095°04'0 0.0
2018-Jun-06 07:29N 29°47' W 095°04'0 0.0
2018-Jun-06 06:58N 29°47' W 095°04'0 0.0
2018-Jun-06 06:28N 29°47' W 095°04'0 0.0
2018-Jun-06 05:53N 29°47' W 095°04'0 0.0
2018-Jun-06 05:29N 29°47' W 095°04'0 0.0
2018-Jun-06 04:52N 29°47' W 095°04'1 0.1
2018-Jun-05 13:30N 29°47' W 095°05'1 0.2
2018-Jun-05 08:00N 29°47' W 095°04'1 0.6
2018-Jun-05 05:53N 29°46' W 095°05'1 1.1
2018-Jun-05 05:21N 29°47' W 095°04'1 1.6
2018-Jun-05 04:52N 29°47' W 095°04'0 0.2
2018-Jun-05 03:58N 29°48' W 095°04'0 0.3
2018-Jun-05 03:30N 29°47' W 095°04'0 0.0
2018-Jun-05 02:49N 29°47' W 095°04'0 0.0
2018-Jun-05 02:30N 29°47' W 095°04'0 0.0
2018-Jun-05 01:59N 29°47' W 095°04'6 0.8
2018-Jun-04 18:32N 29°42' W 095°01'0 7.2
2018-Jun-04 18:30N 29°42' W 095°01'4 6.1
2018-Jun-04 17:55N 29°41' W 094°57'2 2.4
2018-Jun-04 17:14N 29°41' W 094°55'2 1.9
2018-Jun-04 16:04N 29°43' W 094°57'0 0.6
2018-Jun-04 15:38N 29°43' W 094°57'2 3.7
2018-Jun-04 15:07N 29°42' W 094°55'2 5.5
2018-Jun-04 14:47N 29°40' W 094°56'2 5.6
2018-Jun-04 14:28N 29°41' W 094°58'3 5.4
2018-Jun-04 13:58N 29°42' W 095°01'3 6.2
2018-Jun-04 13:29N 29°44' W 095°03'3 6.2
2018-Jun-04 13:00N 29°47' W 095°04'1 1.4
2018-Jun-04 12:29N 29°47' W 095°04'0 0.0
2018-Jun-04 12:00N 29°47' W 095°04'0 0.5
2018-Jun-04 11:30N 29°47' W 095°04'0 0.0
2018-Jun-04 10:07N 29°47' W 095°04'1 0.2
2018-Jun-04 03:36N 29°46' W 095°05'  

Dump ship's entire track history